Time;durP1;ratioP1;P1;durP2;ratioP2;P2;SDS_P1;SDS_P2;PMS_P1;PMS_P2;Temp;Humidity;BMP_temperature;BMP_pressure;BME280_temperature;BME280_humidity;BME280_pressure;Samples;Min_cycle;Max_cycle;Signal;HPM_P1;HPM_P2
2022/10/20 00:02:07;;;;;;;6.35;3.22;;;6.50;99.90;;;6.34;89.63;102211.50;4984925;28;20624;-70
2022/10/20 00:04:36;;;;;;;9.75;3.45;;;6.50;99.90;;;6.34;90.14;102216.88;4982220;28;20203;-71
2022/10/20 00:07:05;;;;;;;8.18;3.30;;;6.50;99.90;;;6.39;90.23;102213.78;4993459;28;20285;-70
2022/10/20 00:09:33;;;;;;;5.13;2.22;;;6.60;99.90;;;6.53;89.56;102219.53;4978313;28;20302;-71
2022/10/20 00:12:02;;;;;;;3.42;3.10;;;6.60;99.90;;;6.60;87.38;102221.66;4972265;28;20191;-71
2022/10/20 00:14:32;;;;;;;2.85;2.22;;;6.70;99.90;;;6.63;87.12;102216.00;4991070;28;20252;-71
2022/10/20 00:17:01;;;;;;;3.55;2.25;;;6.70;99.90;;;6.68;87.71;102213.75;4989010;28;20201;-70
2022/10/20 00:19:30;;;;;;;3.38;2.03;;;6.70;99.90;;;6.77;86.41;102218.25;4989727;28;20250;-71
2022/10/20 00:21:58;;;;;;;2.65;2.35;;;6.80;99.90;;;6.81;86.70;102216.97;4995302;28;20187;-71
2022/10/20 00:24:27;;;;;;;2.75;2.05;;;6.80;99.90;;;6.76;86.41;102208.47;4967446;28;20261;-69
2022/10/20 00:26:56;;;;;;;5.22;2.63;;;6.90;99.90;;;6.67;86.60;102204.81;4996241;28;20234;-71
2022/10/20 00:29:24;;;;;;;3.58;2.67;;;6.80;99.90;;;6.83;85.66;102213.09;4988203;28;20223;-71
2022/10/20 00:31:54;;;;;;;5.20;2.40;;;6.80;99.90;;;6.67;85.91;102212.03;4946982;28;20719;-71
2022/10/20 00:34:23;;;;;;;4.07;3.13;;;6.80;99.90;;;6.68;86.14;102202.97;4978213;28;20215;-71
2022/10/20 00:36:52;;;;;;;2.70;2.20;;;6.80;99.90;;;6.58;86.30;102210.22;4978433;28;20187;-70
2022/10/20 00:39:20;;;;;;;4.25;3.10;;;6.80;99.90;;;6.79;85.79;102198.25;4978496;28;20238;-70
2022/10/20 00:41:49;;;;;;;13.40;3.13;;;6.80;99.90;;;6.66;85.96;102199.56;4991329;28;20218;-70
2022/10/20 00:44:53;;;;;;;3.05;2.13;;;6.80;99.90;;;6.61;86.45;102191.09;4996675;28;20258;-71
2022/10/20 00:47:37;;;;;;;5.03;2.55;;;6.70;99.90;;;6.59;86.58;102193.06;4983644;28;20663;-71
2022/10/20 00:50:13;;;;;;;3.17;2.38;;;6.70;99.90;;;6.72;85.52;102188.22;4991605;28;20630;-70
2022/10/20 00:52:45;;;;;;;3.80;2.35;;;6.80;99.90;;;6.73;85.48;102171.94;4986628;28;20218;-70
2022/10/20 00:55:20;;;;;;;3.75;2.40;;;6.80;99.90;;;6.59;86.25;102163.47;4976751;28;20250;-70
2022/10/20 00:57:53;;;;;;;5.78;2.63;;;6.70;99.90;;;6.60;86.56;102162.47;4986103;28;20543;-72
2022/10/20 01:00:22;;;;;;;2.38;1.85;;;6.70;99.90;;;6.60;86.62;102168.72;4980138;28;20239;-71
2022/10/20 01:02:56;;;;;;;4.00;2.55;;;6.70;99.90;;;6.64;86.16;102163.88;4980603;28;20194;-70
2022/10/20 01:05:24;;;;;;;8.57;2.95;;;6.70;99.90;;;6.57;86.40;102162.78;4997547;28;20182;-70
2022/10/20 01:07:53;;;;;;;3.28;2.40;;;6.70;99.90;;;6.55;86.46;102162.91;4979717;28;20192;-71
2022/10/20 01:10:29;;;;;;;4.75;2.53;;;6.70;99.90;;;6.57;86.41;102163.63;4987819;28;20214;-70
2022/10/20 01:13:06;;;;;;;5.28;3.10;;;6.70;99.90;;;6.61;86.74;102164.19;4978369;28;20617;-70
2022/10/20 01:15:45;;;;;;;6.78;3.08;;;6.70;99.90;;;6.43;86.85;102166.78;4962258;28;20191;-72
2022/10/20 01:18:27;;;;;;;2.58;1.95;;;6.60;99.90;;;6.35;87.47;102159.41;4968854;28;20550;-72
2022/10/20 01:21:31;;;;;;;2.65;2.22;;;6.50;99.90;;;6.51;87.08;102159.69;4991767;28;20600;-71
2022/10/20 01:25:17;;;;;;;9.23;2.80;;;6.60;99.90;;;6.52;86.75;102144.41;4958794;28;20226;-70
2022/10/20 01:27:52;;;;;;;3.28;1.60;;;6.60;99.90;;;6.39;86.99;102149.25;4980055;28;20199;-71
2022/10/20 01:30:23;;;;;;;3.13;2.83;;;6.50;99.90;;;6.33;87.31;102145.28;4993779;28;20219;-70
2022/10/20 01:33:09;;;;;;;3.75;2.60;;;6.50;99.90;;;6.42;87.05;102139.03;4978901;28;20200;-69
2022/10/20 01:35:55;;;;;;;4.57;2.25;;;6.50;99.90;;;6.41;86.80;102137.34;4975335;28;20191;-70
2022/10/20 01:38:33;;;;;;;2.58;1.85;;;6.50;99.90;;;6.40;87.27;102141.00;4957840;28;20676;-70
2022/10/20 01:41:10;;;;;;;4.43;1.98;;;6.50;99.90;;;6.34;87.74;102125.44;4988721;28;20249;-70
2022/10/20 01:43:45;;;;;;;2.90;2.50;;;6.40;99.90;;;6.28;88.19;102126.06;4975169;28;20541;-70
2022/10/20 01:46:17;;;;;;;2.85;1.92;;;6.40;99.90;;;6.37;87.98;102125.19;4980927;28;20191;-70
2022/10/20 01:48:48;;;;;;;4.90;2.67;;;6.40;99.90;;;6.24;88.01;102129.19;4972158;28;20192;-71
2022/10/20 01:51:16;;;;;;;3.53;2.35;;;6.40;99.90;;;6.30;88.82;102132.13;4956101;29;20180;-70
2022/10/20 01:53:45;;;;;;;6.47;2.42;;;6.40;99.90;;;6.22;87.95;102126.63;4970483;28;20250;-70
2022/10/20 01:56:26;;;;;;;3.22;1.80;;;6.40;99.90;;;6.21;88.83;102122.22;4982284;28;20218;-71
2022/10/20 01:59:32;;;;;;;3.00;2.15;;;6.40;99.90;;;6.18;88.23;102111.78;4986659;28;20231;-70
2022/10/20 02:02:32;;;;;;;3.80;2.33;;;6.30;99.90;;;6.16;88.79;102113.75;4986495;28;20200;-70
2022/10/20 02:05:23;;;;;;;5.15;2.58;;;6.30;99.90;;;6.09;88.91;102105.44;4986663;28;20240;-68
2022/10/20 02:08:00;;;;;;;2.63;2.35;;;6.30;99.90;;;6.07;89.02;102102.03;4963780;28;20199;-70
2022/10/20 02:11:26;;;;;;;3.30;2.42;;;6.20;99.90;;;6.15;88.36;102095.91;4981866;28;20280;-70
2022/10/20 02:13:58;;;;;;;5.75;2.65;;;6.20;99.90;;;6.13;88.47;102089.88;4981353;28;20254;-70
2022/10/20 02:16:32;;;;;;;3.92;2.05;;;6.20;99.90;;;6.19;88.47;102083.91;4978583;28;20200;-70
2022/10/20 02:19:03;;;;;;;4.30;2.05;;;6.30;99.90;;;6.22;87.97;102078.25;4989882;28;20226;-71
2022/10/20 02:21:32;;;;;;;5.72;2.08;;;6.30;99.90;;;6.23;88.07;102079.09;4979340;28;20192;-69
2022/10/20 02:24:08;;;;;;;3.97;2.20;;;6.30;99.90;;;6.14;88.41;102072.75;4978644;28;20191;-70
2022/10/20 02:26:40;;;;;;;5.72;2.30;;;6.30;99.90;;;6.18;88.00;102066.09;4978453;28;20245;-70
2022/10/20 02:29:16;;;;;;;4.10;2.53;;;6.30;99.90;;;6.18;88.07;102066.09;4965861;28;20611;-70
2022/10/20 02:31:47;;;;;;;5.18;2.38;;;6.30;99.90;;;6.07;88.52;102069.78;4978388;28;20179;-69
2022/10/20 02:34:16;;;;;;;7.10;2.30;;;6.20;99.90;;;6.03;88.61;102073.75;4978372;28;20211;-71
2022/10/20 02:36:45;;;;;;;4.43;2.13;;;6.20;99.90;;;5.96;88.79;102072.63;4978294;28;20278;-70
2022/10/20 02:39:13;;;;;;;5.68;2.33;;;6.20;99.90;;;6.00;89.36;102070.50;4978176;28;20727;-70
2022/10/20 02:41:42;;;;;;;6.25;3.00;;;6.10;99.90;;;5.92;89.63;102065.00;4977879;28;20613;-70
2022/10/20 02:44:10;;;;;;;5.18;3.33;;;6.10;99.90;;;5.85;90.25;102069.22;4978002;28;20195;-70
2022/10/20 02:46:39;;;;;;;3.67;2.80;;;6.00;99.90;;;5.76;90.70;102059.34;4977990;28;20168;-70
2022/10/20 02:49:09;;;;;;;10.35;2.47;;;6.00;99.90;;;5.75;91.07;102060.31;4981215;28;20297;-71
2022/10/20 02:51:38;;;;;;;5.05;2.35;;;5.90;99.90;;;5.66;91.05;102057.47;4978527;28;20254;-71
2022/10/20 02:54:06;;;;;;;2.05;1.83;;;5.90;99.90;;;5.64;91.47;102056.78;4977946;28;20270;-69
2022/10/20 02:56:35;;;;;;;3.50;2.28;;;5.80;99.90;;;5.61;91.78;102059.78;4985803;28;20226;-71
2022/10/20 02:59:03;;;;;;;3.30;2.10;;;5.80;99.90;;;5.57;91.83;102060.16;4997408;28;20206;-70
2022/10/20 03:01:32;;;;;;;5.60;3.00;;;5.80;99.90;;;5.48;91.93;102064.56;4997449;28;20659;-71
2022/10/20 03:04:01;;;;;;;8.52;3.00;;;5.70;99.90;;;5.63;91.87;102056.94;4990926;28;20183;-70
2022/10/20 03:06:31;;;;;;;4.85;2.40;;;5.70;99.90;;;5.52;92.30;102060.59;4971586;28;20208;-69
2022/10/20 03:09:00;;;;;;;7.38;3.47;;;5.70;99.90;;;5.61;92.15;102049.03;4973854;28;20223;-71
2022/10/20 03:11:28;;;;;;;9.32;2.88;;;5.70;99.90;;;5.56;92.31;102053.97;4997176;28;20679;-72
2022/10/20 03:13:57;;;;;;;4.80;3.42;;;5.70;99.90;;;5.52;92.54;102049.84;4983025;28;20222;-70
2022/10/20 03:16:26;;;;;;;4.68;2.95;;;5.70;99.90;;;5.53;92.74;102043.50;4977836;28;20206;-70
2022/10/20 03:18:54;;;;;;;5.82;2.83;;;5.70;99.90;;;5.80;91.49;102047.31;4977206;28;20282;-71
2022/10/20 03:21:32;;;;;;;4.00;2.65;;;5.80;99.90;;;5.81;90.82;102036.41;4984582;28;20535;-70
2022/10/20 03:24:00;;;;;;;3.25;2.50;;;5.80;99.90;;;5.67;91.08;102045.75;4976492;28;20186;-71
2022/10/20 03:26:29;;;;;;;3.97;2.85;;;5.80;99.90;;;5.62;91.59;102037.28;4979830;28;20250;-70
2022/10/20 03:28:58;;;;;;;2.90;2.40;;;5.80;99.90;;;5.59;92.14;102039.41;4986352;28;20225;-70
2022/10/20 03:31:26;;;;;;;3.40;2.70;;;5.70;99.90;;;5.64;91.53;102035.31;4981089;28;20719;-70
2022/10/20 03:33:55;;;;;;;4.70;3.00;;;5.70;99.90;;;5.67;91.76;102035.00;4979743;28;20212;-70
2022/10/20 03:36:24;;;;;;;7.13;2.58;;;5.70;99.90;;;5.59;91.93;102042.09;4979452;28;20242;-69
2022/10/20 03:38:53;;;;;;;7.13;3.92;;;5.70;99.90;;;5.54;92.17;102034.47;4979299;28;20215;-71
2022/10/20 03:41:22;;;;;;;5.55;3.15;;;5.70;99.90;;;5.51;91.77;102029.38;4994773;28;20237;-70
2022/10/20 03:43:51;;;;;;;3.28;2.85;;;5.70;99.90;;;5.42;92.36;102029.38;4987626;28;20283;-69
2022/10/20 03:46:19;;;;;;;4.32;2.90;;;5.60;99.90;;;5.49;92.79;102025.97;4980537;28;20192;-70
2022/10/20 03:48:48;;;;;;;7.30;2.55;;;5.60;99.90;;;5.47;92.37;102022.56;4984673;28;20211;-72
2022/10/20 03:51:16;;;;;;;8.43;2.72;;;5.60;99.90;;;5.49;92.12;102022.44;4961033;28;20246;-71
2022/10/20 03:53:45;;;;;;;6.97;3.58;;;5.60;99.90;;;5.41;92.50;102031.22;4983182;28;20198;-70
2022/10/20 03:56:20;;;;;;;8.65;3.08;;;5.60;99.90;;;5.38;92.80;102023.44;4997884;28;20193;-71
2022/10/20 03:58:49;;;;;;;7.25;3.25;;;5.60;99.90;;;5.47;92.67;102027.13;4994666;28;20234;-71
2022/10/20 04:01:21;;;;;;;4.55;3.00;;;5.60;99.90;;;5.30;92.95;102028.66;4979617;28;20180;-71
2022/10/20 04:03:50;;;;;;;4.15;2.85;;;5.50;99.90;;;5.33;93.43;102025.69;4990040;28;20194;-69
2022/10/20 04:06:18;;;;;;;7.32;2.60;;;5.50;99.90;;;5.47;92.62;102021.75;4985250;28;20230;-70
2022/10/20 04:08:47;;;;;;;4.70;3.45;;;5.50;99.90;;;5.51;92.47;102012.44;4976721;28;20199;-70
2022/10/20 04:11:17;;;;;;;4.05;2.25;;;5.50;99.90;;;5.39;92.67;102013.53;4976705;28;20688;-70
2022/10/20 04:13:46;;;;;;;5.45;3.90;;;5.50;99.90;;;5.40;92.84;102016.09;4976364;28;20196;-70
2022/10/20 04:16:18;;;;;;;4.47;3.35;;;5.50;99.90;;;5.36;93.00;102001.28;4962423;28;20207;-69
2022/10/20 04:18:47;;;;;;;7.32;3.45;;;5.50;99.90;;;5.36;92.83;102008.47;4982461;28;20195;-70
2022/10/20 04:21:15;;;;;;;3.28;2.95;;;5.50;99.90;;;5.27;93.05;102010.16;4977300;28;20223;-69
2022/10/20 04:23:44;;;;;;;5.95;4.22;;;5.40;99.90;;;5.21;93.33;102010.72;4971653;28;20203;-71
2022/10/20 04:26:16;;;;;;;6.80;3.53;;;5.40;99.90;;;5.27;93.08;102004.81;4982910;28;20184;-71
2022/10/20 04:28:45;;;;;;;5.70;3.35;;;5.40;99.90;;;5.26;93.10;102003.09;4989201;28;20183;-69
2022/10/20 04:31:13;;;;;;;12.45;3.15;;;5.30;99.90;;;5.23;93.10;102004.22;4986216;28;20273;-71
2022/10/20 04:33:42;;;;;;;7.47;3.92;;;5.40;99.90;;;5.20;93.35;101995.59;4980301;28;20198;-71
2022/10/20 04:36:14;;;;;;;5.68;4.45;;;5.40;99.90;;;5.15;93.92;101985.28;4981716;28;20308;-71
2022/10/20 04:38:42;;;;;;;9.65;4.80;;;5.30;99.90;;;5.24;93.39;101987.13;4984163;28;20231;-69
2022/10/20 04:41:11;;;;;;;6.13;3.63;;;5.40;99.90;;;5.25;93.21;101991.50;4975659;28;20188;-71
2022/10/20 04:43:41;;;;;;;9.45;4.63;;;5.40;99.90;;;5.27;92.99;101991.38;4975684;28;20250;-70
2022/10/20 04:46:11;;;;;;;3.75;2.75;;;5.40;99.90;;;5.25;93.01;101988.84;4980542;28;20196;-70
2022/10/20 04:48:43;;;;;;;7.15;5.13;;;5.40;99.90;;;5.26;92.68;101976.25;4976029;28;20552;-70
2022/10/20 04:51:15;;;;;;;4.75;4.00;;;5.40;99.90;;;5.31;92.31;101974.00;4988734;28;20270;-69
2022/10/20 04:53:44;;;;;;;7.75;4.43;;;5.40;99.90;;;5.25;92.85;101975.41;4976483;28;20195;-71
2022/10/20 04:56:18;;;;;;;11.98;4.10;;;5.40;99.90;;;5.14;92.86;101967.50;4986127;28;20222;-70
2022/10/20 04:58:50;;;;;;;6.90;2.85;;;5.30;99.90;;;5.13;93.14;101970.34;4975240;28;20171;-69
2022/10/20 05:01:20;;;;;;;6.38;3.92;;;5.30;99.90;;;5.17;93.02;101971.75;4975042;28;20668;-69
2022/10/20 05:03:49;;;;;;;10.00;3.70;;;5.30;99.90;;;5.10;93.22;101971.44;4975383;28;20195;-70
2022/10/20 05:06:21;;;;;;;7.50;3.53;;;5.20;99.90;;;5.00;93.70;101964.38;4975742;28;20254;-70
2022/10/20 05:08:54;;;;;;;7.03;2.83;;;5.20;99.90;;;5.09;94.04;101963.53;4982056;28;20261;-70
2022/10/20 05:11:25;;;;;;;5.20;4.20;;;5.20;99.90;;;5.11;93.83;101956.19;4979399;28;20195;-70
2022/10/20 05:13:55;;;;;;;6.00;4.30;;;5.20;99.90;;;5.07;93.82;101954.78;4974836;28;20187;-70
2022/10/20 05:16:24;;;;;;;8.45;3.60;;;5.20;99.90;;;5.02;94.03;101963.25;4981641;28;20265;-70
2022/10/20 05:18:56;;;;;;;15.55;5.13;;;5.20;99.90;;;4.98;94.06;101952.97;4974749;28;20198;-71
2022/10/20 05:21:27;;;;;;;4.35;3.83;;;5.10;99.90;;;5.02;94.12;101944.50;4974862;28;20195;-70
2022/10/20 05:23:57;;;;;;;7.13;4.85;;;5.10;99.90;;;5.03;93.88;101953.38;4978296;28;20208;-71
2022/10/20 05:26:28;;;;;;;13.85;4.22;;;5.10;99.90;;;5.00;93.98;101948.28;4991268;28;20187;-70
2022/10/20 05:28:58;;;;;;;7.55;4.18;;;5.10;99.90;;;4.96;94.09;101941.50;4985137;28;20224;-70
2022/10/20 05:31:27;;;;;;;8.25;4.90;;;5.10;99.90;;;5.00;93.67;101950.97;4988913;28;20195;-70
2022/10/20 05:33:57;;;;;;;7.05;4.55;;;5.10;99.90;;;4.99;93.86;101957.31;4988442;28;20195;-70
2022/10/20 05:36:28;;;;;;;6.70;5.13;;;5.10;99.90;;;5.04;94.14;101955.06;4977154;28;20223;-70
2022/10/20 05:38:56;;;;;;;4.78;4.28;;;5.10;99.90;;;5.00;93.88;101953.66;4981727;28;20270;-70
2022/10/20 05:41:28;;;;;;;9.85;4.97;;;5.10;99.90;;;5.01;94.55;101960.72;4992660;28;20229;-70
2022/10/20 05:44:07;;;;;;;10.13;4.35;;;5.10;99.90;;;5.07;93.94;101957.47;4974822;28;20207;-72
2022/10/20 05:46:40;;;;;;;5.18;3.58;;;5.20;99.90;;;5.11;93.31;101961.56;4984822;28;20197;-71
2022/10/20 05:49:14;;;;;;;5.32;4.35;;;5.20;99.90;;;5.01;94.12;101956.19;4989323;28;20223;-71
2022/10/20 05:51:45;;;;;;;14.43;6.07;;;5.20;99.90;;;5.16;93.64;101962.00;4972846;28;20210;-71
2022/10/20 05:54:15;;;;;;;7.22;5.90;;;5.20;99.90;;;5.16;93.74;101970.91;4962192;28;20195;-70
2022/10/20 05:56:44;;;;;;;7.80;5.55;;;5.20;99.90;;;5.18;93.98;101962.72;4978740;28;20210;-71
2022/10/20 05:59:14;;;;;;;6.63;5.18;;;5.20;99.90;;;5.14;93.92;101964.81;4979090;28;20269;-71
2022/10/20 06:01:47;;;;;;;7.15;4.60;;;5.20;99.90;;;5.08;94.02;101968.03;4979032;28;20282;-70
2022/10/20 06:04:22;;;;;;;10.50;4.82;;;5.20;99.90;;;5.19;94.15;101969.75;4980522;28;20167;-70
2022/10/20 06:06:51;;;;;;;11.45;5.55;;;5.20;99.90;;;5.20;93.75;101971.44;4998245;28;20193;-70
2022/10/20 06:09:21;;;;;;;8.98;5.25;;;5.30;99.90;;;5.32;93.12;101970.34;4998438;28;20202;-70
2022/10/20 06:11:51;;;;;;;8.50;4.78;;;5.40;99.90;;;5.22;93.30;101969.50;4995537;28;20191;-70
2022/10/20 06:14:21;;;;;;;8.82;5.80;;;5.30;99.90;;;5.15;93.72;101973.72;4978773;28;20242;-70
2022/10/20 06:16:51;;;;;;;15.25;5.53;;;5.30;99.90;;;5.16;94.01;101975.41;4977924;28;20208;-70
2022/10/20 06:19:21;;;;;;;8.10;4.75;;;5.30;99.90;;;5.21;93.99;101968.63;4977824;28;20327;-70
2022/10/20 06:21:50;;;;;;;10.90;5.93;;;5.30;99.90;;;5.36;93.40;101971.75;4977814;28;20579;-71
2022/10/20 06:24:19;;;;;;;7.43;4.72;;;5.40;99.90;;;5.46;92.57;101977.97;4978036;28;20198;-68
2022/10/20 06:26:48;;;;;;;10.95;5.97;;;5.50;99.90;;;5.40;93.01;101973.16;4980518;28;20204;-70
2022/10/20 06:29:21;;;;;;;18.85;5.32;;;5.50;99.90;;;5.62;91.45;101966.59;4991172;28;20253;-71
2022/10/20 06:31:51;;;;;;;7.15;5.20;;;5.50;99.90;;;5.53;91.50;101965.63;4988535;28;20195;-70
2022/10/20 06:34:23;;;;;;;13.88;6.10;;;5.60;99.90;;;5.55;91.48;101969.03;4985624;28;20225;-70
2022/10/20 06:36:53;;;;;;;10.13;5.32;;;5.60;99.90;;;5.60;91.24;101963.22;4979328;28;20215;-70
2022/10/20 06:39:24;;;;;;;7.53;6.38;;;5.70;99.90;;;5.68;90.96;101966.88;4979934;28;20227;-70
2022/10/20 06:41:54;;;;;;;7.47;6.47;;;5.70;99.90;;;5.68;91.17;101966.03;4980029;28;20183;-68
2022/10/20 06:44:25;;;;;;;8.15;4.85;;;5.70;99.90;;;5.81;90.42;101965.75;4979842;28;20475;-69
2022/10/20 06:46:54;;;;;;;8.75;5.03;;;5.80;99.90;;;5.91;89.98;101967.41;4992056;28;20199;-70
2022/10/20 06:49:23;;;;;;;5.68;4.43;;;5.90;99.90;;;5.99;89.31;101969.41;4986499;28;20223;-70
2022/10/20 06:51:52;;;;;;;7.38;5.97;;;6.00;99.90;;;6.08;88.80;101968.50;4978205;28;20271;-69
2022/10/20 06:54:20;;;;;;;5.70;4.50;;;6.10;99.90;;;6.21;88.66;101958.25;4983410;28;20277;-71
2022/10/20 06:56:49;;;;;;;10.63;5.90;;;6.20;99.90;;;6.30;88.02;101952.00;4996575;28;20214;-69
2022/10/20 06:59:17;;;;;;;12.00;6.38;;;6.20;99.90;;;6.37;87.45;101958.47;4995968;28;20558;-70
2022/10/20 07:01:47;;;;;;;14.63;6.95;;;6.30;99.90;;;6.37;87.20;101949.56;4984952;28;20202;-70
2022/10/20 07:04:17;;;;;;;9.70;5.63;;;6.40;99.90;;;6.58;86.50;101949.31;4977761;28;20226;-70
2022/10/20 07:06:47;;;;;;;8.75;5.90;;;6.50;99.90;;;6.66;85.65;101952.94;4977599;28;20214;-70
2022/10/20 07:09:19;;;;;;;11.65;6.60;;;6.60;99.90;;;6.78;85.02;101959.78;4977171;28;20215;-69
2022/10/20 07:11:52;;;;;;;8.27;5.30;;;6.70;99.90;;;6.87;85.51;101956.19;4977141;28;20182;-70
2022/10/20 07:14:21;;;;;;;7.35;5.90;;;6.80;99.90;;;7.01;84.67;101954.84;4977361;28;20541;-70
2022/10/20 07:16:51;;;;;;;8.77;5.45;;;6.90;99.90;;;7.03;84.05;101950.13;4979453;28;20272;-70
2022/10/20 07:19:20;;;;;;;8.55;6.45;;;7.00;99.90;;;7.20;82.86;101951.13;4986154;28;20219;-71
2022/10/20 07:21:49;;;;;;;9.85;5.50;;;7.10;99.90;;;7.31;83.19;101954.41;4992854;28;20205;-69
2022/10/20 07:24:18;;;;;;;9.00;5.75;;;7.10;99.90;;;7.35;82.41;101947.75;4979492;28;20199;-71
2022/10/20 07:26:46;;;;;;;10.32;5.90;;;7.30;99.90;;;7.45;82.04;101944.13;4980410;28;20242;-70
2022/10/20 07:29:15;;;;;;;7.15;5.55;;;7.40;99.90;;;7.52;81.42;101942.47;4979021;28;20211;-70
2022/10/20 07:31:46;;;;;;;9.48;5.57;;;7.40;99.90;;;7.60;80.93;101943.38;4978442;28;20270;-70
2022/10/20 07:34:21;;;;;;;8.73;6.13;;;7.50;99.90;;;7.74;80.44;101941.97;4978425;28;20172;-71
2022/10/20 07:36:56;;;;;;;12.70;6.47;;;7.60;99.90;;;7.75;79.98;101938.25;4978302;28;20230;-70
2022/10/20 07:39:26;;;;;;;6.85;5.47;;;7.70;99.90;;;7.81;80.33;101929.53;4991049;28;20215;-70
2022/10/20 07:41:55;;;;;;;7.80;4.95;;;7.70;99.90;;;7.89;79.88;101926.88;4977726;28;20200;-70
2022/10/20 07:44:39;;;;;;;6.75;5.45;;;7.80;99.90;;;8.02;79.09;101931.84;4983785;28;20188;-70
2022/10/20 07:47:08;;;;;;;7.82;4.82;;;7.90;99.90;;;8.12;78.81;101928.03;4988111;28;20198;-68
2022/10/20 07:49:38;;;;;;;7.75;5.07;;;8.00;99.90;;;8.24;78.44;101931.28;4984545;28;20223;-70
2022/10/20 07:52:15;;;;;;;7.28;6.05;;;8.10;99.90;;;8.41;77.93;101927.69;4977855;28;20511;-71
2022/10/20 07:54:44;;;;;;;6.38;4.88;;;8.20;99.90;;;8.50;77.65;101929.41;4978198;28;20241;-71
2022/10/20 07:57:13;;;;;;;7.28;4.28;;;8.40;99.90;;;8.48;77.67;101923.31;4974082;28;20751;-71
2022/10/20 07:59:42;;;;;;;8.95;5.45;;;8.40;99.90;;;8.70;77.05;101920.03;4990989;28;20273;-70
2022/10/20 08:02:12;;;;;;;14.93;5.82;;;8.50;99.90;;;8.85;76.39;101925.63;4985919;28;20187;-70
2022/10/20 08:04:43;;;;;;;9.02;6.15;;;8.70;99.90;;;8.93;76.05;101928.31;4982658;28;20176;-70
2022/10/20 08:07:11;;;;;;;5.75;4.03;;;8.80;99.90;;;9.03;75.33;101923.63;4958016;29;20397;-72
2022/10/20 08:09:40;;;;;;;10.15;5.88;;;8.90;99.90;;;9.14;75.21;101922.44;4973568;28;20254;-70
2022/10/20 08:12:09;;;;;;;7.43;5.25;;;9.00;99.90;;;9.27;74.86;101916.53;4989233;28;20238;-71
2022/10/20 08:14:37;;;;;;;8.68;4.90;;;9.10;99.90;;;9.31;74.43;101909.78;4983112;28;20191;-71
2022/10/20 08:17:06;;;;;;;10.10;5.45;;;9.20;99.90;;;9.39;74.31;101913.31;4988864;28;20210;-71
2022/10/20 08:19:35;;;;;;;5.50;4.87;;;9.20;99.90;;;9.46;73.89;101913.47;4962850;28;20227;-71
2022/10/20 08:22:10;;;;;;;6.00;4.80;;;9.30;99.90;;;9.43;74.25;101908.44;4975990;28;20447;-70
2022/10/20 08:24:39;;;;;;;9.27;5.50;;;9.30;99.90;;;9.64;73.74;101916.84;4976683;28;20222;-70
2022/10/20 08:27:07;;;;;;;6.20;4.40;;;9.40;99.90;;;9.78;73.01;101913.44;4975897;28;20195;-70
2022/10/20 08:29:37;;;;;;;6.55;4.72;;;9.60;99.90;;;9.84;72.84;101906.50;4982592;28;20626;-70
2022/10/20 08:32:06;;;;;;;8.93;4.70;;;9.70;99.90;;;9.88;72.60;101903.25;4995034;28;20183;-71
2022/10/20 08:34:35;;;;;;;7.70;5.00;;;9.70;99.90;;;9.97;72.51;101894.09;4976582;28;20834;-70
2022/10/20 08:37:03;;;;;;;7.93;5.03;;;9.80;99.90;;;10.10;71.94;101906.25;4975673;28;20516;-71
2022/10/20 08:39:33;;;;;;;8.80;4.78;;;9.90;99.90;;;10.16;71.42;101894.78;4975244;28;20421;-69
2022/10/20 08:42:04;;;;;;;8.27;5.13;;;10.00;99.90;;;10.25;71.13;101897.28;4976183;28;20175;-69
2022/10/20 08:44:41;;;;;;;7.50;4.40;;;10.10;99.90;;;10.33;70.92;101893.69;4975619;28;20514;-71
2022/10/20 08:47:25;;;;;;;8.03;5.77;;;10.20;99.90;;;10.43;70.92;101897.84;4975223;28;20756;-71
2022/10/20 08:50:01;;;;;;;9.83;4.90;;;10.30;99.90;;;10.61;69.96;101894.88;4977922;28;20549;-72
2022/10/20 08:52:29;;;;;;;7.30;4.70;;;10.40;99.30;;;10.55;69.47;101892.91;4977130;28;20789;-70
2022/10/20 08:55:01;;;;;;;5.87;4.17;;;10.40;98.10;;;10.63;69.13;101887.44;4977728;28;20777;-70
2022/10/20 08:57:32;;;;;;;9.23;4.10;;;10.50;97.60;;;10.75;68.87;101888.69;4957670;28;20904;-72
2022/10/20 09:00:17;;;;;;;7.33;5.30;;;10.60;97.30;;;10.85;68.53;101878.47;4956057;28;20421;-70
2022/10/20 09:02:48;;;;;;;5.00;4.50;;;10.60;96.80;;;11.02;68.32;101871.06;4971245;28;20781;-69
2022/10/20 09:05:24;;;;;;;7.23;4.13;;;10.80;96.60;;;11.16;67.94;101877.56;4974974;28;20935;-69
2022/10/20 09:07:54;;;;;;;7.10;5.00;;;10.90;95.90;;;11.17;66.93;101884.66;4974883;28;20489;-70
2022/10/20 09:10:32;;;;;;;9.37;3.93;;;11.00;94.30;;;11.20;67.38;101874.31;4976547;28;20473;-70
2022/10/20 09:13:02;;;;;;;7.70;4.50;;;11.00;94.10;;;11.29;66.49;101881.34;4994306;28;20404;-71
2022/10/20 09:15:31;;;;;;;11.50;4.67;;;11.10;93.30;;;11.36;66.27;101872.47;4994005;28;20795;-71
2022/10/20 09:18:08;;;;;;;6.07;4.33;;;11.20;92.20;;;11.33;66.50;101868.25;4965935;28;20474;-70
2022/10/20 09:20:46;;;;;;;5.13;3.93;;;11.20;92.20;;;11.41;66.52;101865.50;4974307;28;20977;-71
2022/10/20 09:23:18;;;;;;;8.00;5.23;;;11.20;92.40;;;11.44;66.34;101869.69;4974669;28;20462;-70
2022/10/20 09:26:14;;;;;;;8.37;4.90;;;11.20;91.80;;;11.36;66.31;101865.19;4958105;28;20758;-70
2022/10/20 09:29:09;;;;;;;4.27;3.87;;;11.30;90.90;;;11.45;65.85;101861.38;4987489;28;20456;-68
2022/10/20 09:31:45;;;;;;;4.60;4.20;;;11.30;90.70;;;11.33;66.11;101852.00;4969549;28;20517;-71
2022/10/20 09:34:23;;;;;;;5.90;4.20;;;11.20;90.20;;;11.45;65.41;101847.81;4974443;28;20795;-70
2022/10/20 09:36:58;;;;;;;7.57;3.73;;;11.30;89.20;;;11.67;65.52;101843.34;4983604;28;20491;-71
2022/10/20 09:39:31;;;;;;;6.33;4.10;;;11.40;90.00;;;11.67;65.09;101832.50;4993935;28;20989;-71
2022/10/20 09:42:06;;;;;;;6.57;4.70;;;11.50;87.90;;;11.66;64.97;101837.09;4987203;28;20934;-70
2022/10/20 09:44:49;;;;;;;7.53;4.90;;;11.50;86.40;;;11.71;65.27;101840.06;4992539;28;20446;-70
2022/10/20 09:47:19;;;;;;;6.50;5.67;;;11.50;87.30;;;11.74;65.12;101834.31;4963373;28;20433;-70
2022/10/20 09:49:54;;;;;;;4.40;3.90;;;11.60;87.20;;;11.51;65.88;101838.97;4987082;28;20470;-71
2022/10/20 09:52:36;;;;;;;5.90;4.40;;;11.40;86.80;;;11.49;66.44;101830.16;4976961;28;20807;-70
2022/10/20 09:55:24;;;;;;;5.33;4.10;;;11.30;89.20;;;11.80;65.69;101815.63;4987603;28;20815;-71
2022/10/20 09:57:55;;;;;;;5.87;3.77;;;11.50;90.00;;;11.96;65.09;101810.81;4973974;28;20462;-70
2022/10/20 10:00:29;;;;;;;6.40;4.17;;;11.70;87.70;;;11.91;64.91;101812.44;4977890;28;20459;-69
2022/10/20 10:03:24;;;;;;;6.00;4.40;;;11.80;84.90;;;11.94;65.00;101806.63;4981876;28;20761;-70
2022/10/20 10:05:56;;;;;;;5.53;4.43;;;11.80;85.30;;;11.90;65.03;101787.19;4983124;28;20458;-69
2022/10/20 10:08:27;;;;;;;7.53;4.40;;;11.80;84.90;;;12.02;64.76;101801.09;4980679;28;20423;-70
2022/10/20 10:11:03;;;;;;;5.30;3.60;;;11.80;84.50;;;12.13;64.55;101795.19;4974089;28;20429;-69
2022/10/20 10:13:42;;;;;;;11.40;5.37;;;11.90;83.50;;;12.29;63.99;101781.41;4974080;28;20422;-71
2022/10/20 10:16:17;;;;;;;7.17;3.90;;;12.00;82.80;;;12.46;63.86;101790.97;4986652;28;20649;-70
2022/10/20 10:18:56;;;;;;;9.97;4.53;;;12.20;81.40;;;12.43;63.50;101777.78;4973628;28;20428;-71
2022/10/20 10:21:24;;;;;;;5.33;4.40;;;12.30;79.50;;;12.58;63.03;101770.44;4986479;23;20465;-71
2022/10/20 10:23:57;;;;;;;5.47;3.40;;;12.40;78.40;;;12.68;62.65;101763.81;4965648;28;20471;-69
2022/10/20 10:26:45;;;;;;;6.93;4.60;;;12.40;76.70;;;12.77;62.37;101765.38;4973063;28;20915;-70
2022/10/20 10:29:24;;;;;;;6.27;3.93;;;12.50;76.00;;;12.80;61.89;101760.38;4981821;28;20401;-71
2022/10/20 10:32:00;;;;;;;5.90;4.07;;;12.60;72.70;;;12.79;61.81;101752.41;4969011;28;20414;-72
2022/10/20 10:35:23;;;;;;;4.77;3.40;;;12.50;70.60;;;12.90;61.26;101747.28;4964535;28;20416;-70
2022/10/20 10:37:54;;;;;;;6.50;4.57;;;12.60;68.80;;;13.04;61.57;101740.94;4975530;28;20525;-71
2022/10/20 10:40:32;;;;;;;4.90;3.83;;;12.80;68.80;;;13.18;61.14;101739.16;4975305;28;20752;-70
2022/10/20 10:43:28;;;;;;;7.47;5.50;;;12.90;68.00;;;13.16;60.76;101729.56;4979856;28;20430;-70
2022/10/20 10:46:06;;;;;;;5.13;3.60;;;12.90;65.40;;;13.07;60.54;101737.81;4980701;28;20961;-70
2022/10/20 10:49:21;;;;;;;3.80;3.27;;;12.90;62.20;;;13.18;60.19;101733.72;4982008;28;20697;-70